Time;durP1;ratioP1;P1;durP2;ratioP2;P2;SDS_P1;SDS_P2;PMS_P1;PMS_P2;Temp;Humidity;BMP_temperature;BMP_pressure;BME280_temperature;BME280_humidity;BME280_pressure;Samples;Min_cycle;Max_cycle;Signal;HPM_P1;HPM_P2
2022/11/01 00:01:38;;;;;;;4.50;4.20;;;15.60;79.10;15.80;96461.00;;;;5038545;28;20228;-86
2022/11/01 00:04:06;;;;;;;4.60;4.30;;;15.60;79.00;15.80;96497.00;;;;5039210;28;20263;-85
2022/11/01 00:06:33;;;;;;;4.50;4.20;;;15.60;79.00;15.80;96507.00;;;;5039527;28;20193;-86
2022/11/01 00:09:00;;;;;;;5.60;4.47;;;15.50;79.00;15.80;96493.00;;;;5039257;28;20193;-86
2022/11/01 00:11:28;;;;;;;5.03;4.63;;;15.50;79.00;15.70;96498.00;;;;5039750;28;20216;-86
2022/11/01 00:13:56;;;;;;;4.77;4.37;;;15.50;79.10;15.70;96487.00;;;;5038944;28;20253;-85
2022/11/01 00:16:23;;;;;;;3.70;3.50;;;15.50;79.10;15.70;96495.00;;;;5039606;28;20194;-85
2022/11/01 00:18:50;;;;;;;4.47;4.17;;;15.50;79.20;15.70;96496.00;;;;5040065;28;20732;-86
2022/11/01 00:21:19;;;;;;;4.33;3.90;;;15.50;79.30;15.70;96491.00;;;;5040286;28;20269;-85
2022/11/01 00:23:46;;;;;;;4.17;3.53;;;15.50;79.40;15.70;96491.00;;;;5038970;28;20308;-86
2022/11/01 00:26:17;;;;;;;4.30;3.77;;;15.50;79.30;15.70;96486.00;;;;5039624;28;20224;-85
2022/11/01 00:28:47;;;;;;;3.80;3.50;;;15.50;79.30;15.80;96498.00;;;;5039437;28;20220;-85
2022/11/01 00:31:16;;;;;;;3.87;3.67;;;15.50;79.30;15.80;96497.00;;;;5039561;28;20708;-85
2022/11/01 00:33:44;;;;;;;4.77;3.83;;;15.50;79.30;15.80;96497.00;;;;5039612;28;20226;-85
2022/11/01 00:36:12;;;;;;;3.90;3.60;;;15.50;79.20;15.70;96495.00;;;;5039606;28;20646;-86
2022/11/01 00:38:39;;;;;;;3.57;3.30;;;15.50;79.30;15.80;96487.00;;;;5039682;28;20197;-86
2022/11/01 00:41:07;;;;;;;3.83;3.53;;;15.50;79.30;15.70;96499.00;;;;5038955;28;20205;-85
2022/11/01 00:43:36;;;;;;;3.60;3.33;;;15.50;79.40;15.70;96485.00;;;;5040150;28;20249;-85
2022/11/01 00:46:05;;;;;;;3.37;3.17;;;15.50;79.50;15.70;96493.00;;;;5042800;28;20224;-85
2022/11/01 00:48:32;;;;;;;3.73;3.27;;;15.50;79.30;15.70;96492.00;;;;5042563;28;20233;-85
2022/11/01 00:51:00;;;;;;;3.77;3.47;;;15.50;79.30;15.70;96490.00;;;;5042761;28;20247;-85
2022/11/01 00:53:27;;;;;;;3.50;3.13;;;15.50;79.30;15.70;96475.00;;;;5042799;28;20229;-85
2022/11/01 00:56:00;;;;;;;3.40;3.20;;;15.50;79.20;15.70;96466.00;;;;5043528;28;20223;-85
2022/11/01 00:58:28;;;;;;;3.60;3.30;;;15.50;79.20;15.60;96475.00;;;;5042963;28;20201;-86
2022/11/01 01:00:55;;;;;;;3.60;3.30;;;15.50;79.20;15.60;96483.00;;;;5041415;28;20232;-85
2022/11/01 01:03:24;;;;;;;7.17;3.80;;;15.50;79.20;15.60;96483.00;;;;5041962;28;20250;-85
2022/11/01 01:05:53;;;;;;;13.83;4.17;;;15.40;79.30;15.50;96479.00;;;;5040226;28;20635;-86
2022/11/01 01:08:21;;;;;;;9.93;3.50;;;15.40;79.30;15.50;96489.00;;;;5038950;28;20220;-86
2022/11/01 01:10:49;;;;;;;10.57;3.50;;;15.40;79.20;15.40;96478.00;;;;5039084;28;20658;-86
2022/11/01 01:13:17;;;;;;;6.67;3.67;;;15.40;79.10;15.40;96486.00;;;;5038256;28;20745;-86
2022/11/01 01:15:44;;;;;;;10.40;4.03;;;15.30;78.90;15.30;96474.00;;;;5039477;28;20228;-86
2022/11/01 01:18:12;;;;;;;4.13;3.83;;;15.30;78.90;15.30;96470.00;;;;5037859;28;20288;-87
2022/11/01 01:20:41;;;;;;;5.07;3.40;;;15.20;78.80;15.20;96469.00;;;;5038284;28;20224;-86
2022/11/01 01:23:09;;;;;;;9.13;3.27;;;15.20;78.80;15.20;96474.00;;;;5038098;28;20217;-86
2022/11/01 01:25:40;;;;;;;4.17;3.30;;;15.20;78.80;15.20;96478.00;;;;5038178;28;20260;-86
2022/11/01 01:28:07;;;;;;;12.03;3.90;;;15.10;78.80;15.20;96477.00;;;;5038445;28;20623;-86
2022/11/01 01:30:34;;;;;;;5.10;3.40;;;15.10;78.90;15.10;96476.00;;;;5038996;28;20292;-87
2022/11/01 01:33:01;;;;;;;3.10;2.90;;;15.10;79.00;15.10;96475.00;;;;5055790;22;20649;-88
2022/11/01 01:35:28;;;;;;;5.07;3.20;;;15.10;79.00;15.10;96471.00;;;;5054274;28;20232;-87
2022/11/01 01:37:56;;;;;;;3.30;3.00;;;15.10;79.00;15.10;96472.00;;;;5042480;28;20205;-87
2022/11/01 01:40:23;;;;;;;3.13;2.93;;;15.00;79.00;15.10;96459.00;;;;5034422;28;20252;-87
2022/11/01 01:42:51;;;;;;;15.53;3.83;;;15.00;78.90;15.10;96461.00;;;;5034303;28;20225;-88
2022/11/01 01:45:32;;;;;;;9.93;3.90;;;15.00;79.10;15.10;96459.00;;;;5030742;28;20208;-87
2022/11/01 01:48:19;;;;;;;3.67;3.37;;;15.00;79.10;15.00;96452.00;;;;5027052;28;20284;-87
2022/11/01 01:50:54;;;;;;;5.93;3.67;;;15.00;79.10;15.00;96455.00;;;;5025735;28;20185;-88
2022/11/01 01:53:28;;;;;;;4.73;3.30;;;15.00;79.10;15.00;96455.00;;;;5033312;28;20217;-87
2022/11/01 01:56:00;;;;;;;6.00;3.53;;;14.90;79.00;15.00;96455.00;;;;5023154;28;20714;-88
2022/11/01 01:58:31;;;;;;;3.80;3.60;;;14.90;79.70;15.00;96460.00;;;;5027560;28;20295;-87
2022/11/01 02:00:59;;;;;;;3.47;3.17;;;14.90;79.00;15.00;96450.00;;;;5032210;28;20283;-88
2022/11/01 02:03:31;;;;;;;12.30;4.00;;;14.90;79.10;15.00;96447.00;;;;5033835;28;20299;-87
2022/11/01 02:06:06;;;;;;;5.30;3.40;;;14.90;79.10;15.00;96444.00;;;;5033850;28;20257;-87
2022/11/01 02:08:37;;;;;;;3.53;3.27;;;14.80;79.10;15.00;96438.00;;;;5033523;28;20741;-87
2022/11/01 02:11:07;;;;;;;7.63;3.60;;;14.80;79.10;15.00;96441.00;;;;5033151;28;20320;-87
2022/11/01 02:13:35;;;;;;;4.03;3.63;;;14.90;79.30;15.00;96445.00;;;;5033034;28;20320;-87
2022/11/01 02:16:32;;;;;;;8.53;4.00;;;14.80;79.20;15.00;96448.00;;;;5033610;28;20291;-87
2022/11/01 02:19:32;;;;;;;4.07;3.40;;;14.80;79.30;15.00;96443.00;;;;5014445;28;20304;-87
2022/11/01 02:22:07;;;;;;;6.47;3.30;;;14.80;79.20;15.00;96450.00;;;;5031882;28;20202;-87
2022/11/01 02:25:35;;;;;;;5.17;3.33;;;14.80;79.10;14.90;96449.00;;;;5030827;28;20189;-87
2022/11/01 02:28:26;;;;;;;3.63;3.33;;;14.80;79.30;14.90;96445.00;;;;5003197;28;20297;-88
2022/11/01 02:31:10;;;;;;;5.03;3.00;;;14.90;79.20;14.90;96443.00;;;;5022150;28;20194;-88
2022/11/01 02:33:44;;;;;;;5.47;3.20;;;14.80;79.10;14.90;96452.00;;;;5032512;28;20277;-87
2022/11/01 02:36:22;;;;;;;4.43;4.03;;;14.80;79.00;14.90;96490.00;;;;5032853;28;20288;-87
2022/11/01 02:38:59;;;;;;;3.87;3.57;;;14.70;78.80;14.90;96502.00;;;;5033102;28;20213;-87
2022/11/01 02:41:32;;;;;;;3.77;3.33;;;14.80;78.80;14.80;96490.00;;;;5030318;28;20277;-87
2022/11/01 02:44:04;;;;;;;5.33;3.33;;;14.70;78.80;14.80;96480.00;;;;5035123;28;20229;-88
2022/11/01 02:49:29;;;;;;;7.70;3.50;;;14.70;78.90;14.80;96487.00;;;;5032013;28;20237;-87
2022/11/01 02:51:58;;;;;;;3.40;3.10;;;14.70;79.70;14.80;96479.00;;;;5031339;28;20223;-87
2022/11/01 02:54:33;;;;;;;5.70;3.30;;;14.70;78.90;14.80;96485.00;;;;5032770;28;20640;-88
2022/11/01 02:57:08;;;;;;;3.77;2.93;;;14.60;78.90;14.80;96479.00;;;;5013826;28;20201;-88
2022/11/01 02:59:45;;;;;;;3.70;3.40;;;14.60;78.90;14.70;96483.00;;;;5014083;28;20304;-87
2022/11/01 03:02:38;;;;;;;5.47;3.23;;;14.60;79.00;14.70;96459.00;;;;5020293;28;20288;-88
2022/11/01 03:05:12;;;;;;;3.43;3.13;;;14.60;79.60;14.70;96464.00;;;;5032628;28;20280;-87
2022/11/01 03:07:45;;;;;;;3.20;3.00;;;14.60;78.80;14.70;96478.00;;;;5032289;28;20245;-87
2022/11/01 03:10:13;;;;;;;29.97;3.60;;;14.60;78.70;14.60;96484.00;;;;5028575;28;20300;-87
2022/11/01 03:12:56;;;;;;;3.47;3.27;;;14.50;78.60;14.60;96479.00;;;;5032171;28;20204;-88
2022/11/01 03:15:31;;;;;;;4.63;3.60;;;14.50;78.70;14.60;96493.00;;;;5025410;28;20221;-87
2022/11/01 03:18:06;;;;;;;3.43;3.23;;;14.50;78.80;14.60;96493.00;;;;5031198;28;20662;-87
2022/11/01 03:20:47;;;;;;;3.93;3.63;;;14.50;78.80;14.60;96489.00;;;;5032005;28;20200;-87
2022/11/01 03:23:17;;;;;;;4.07;3.27;;;14.50;78.90;14.60;96496.00;;;;5030748;28;20291;-87
2022/11/01 03:25:52;;;;;;;3.10;2.87;;;14.50;78.90;14.60;96490.00;;;;5021844;28;20198;-87
2022/11/01 03:28:24;;;;;;;4.47;3.30;;;14.50;78.90;14.60;96497.00;;;;5031413;28;20219;-87
2022/11/01 03:30:58;;;;;;;4.00;3.60;;;14.50;79.00;14.60;96498.00;;;;5026055;28;20228;-88
2022/11/01 03:33:28;;;;;;;3.93;3.30;;;14.50;79.00;14.60;96506.00;;;;5026757;28;20624;-88
2022/11/01 03:36:03;;;;;;;8.10;3.67;;;14.40;78.90;14.50;96505.00;;;;5031760;28;20229;-88
2022/11/01 03:38:38;;;;;;;3.20;3.00;;;14.40;78.80;14.50;96515.00;;;;5030746;28;20212;-87
2022/11/01 03:41:11;;;;;;;3.87;3.37;;;14.40;78.80;14.50;96518.00;;;;5018839;28;20284;-87
2022/11/01 03:43:39;;;;;;;7.30;3.23;;;14.40;78.80;14.50;96522.00;;;;5025126;28;20204;-88
2022/11/01 03:46:07;;;;;;;3.00;2.87;;;14.40;78.80;14.50;96521.00;;;;5031656;28;20380;-88
2022/11/01 03:48:38;;;;;;;6.40;3.40;;;14.30;78.80;14.40;96531.00;;;;5025762;28;20217;-87
2022/11/01 03:51:07;;;;;;;4.33;3.30;;;14.40;79.00;14.40;96534.00;;;;5023109;28;20233;-87
2022/11/01 03:53:34;;;;;;;6.43;3.10;;;14.30;78.90;14.40;96538.00;;;;5031676;28;20342;-87
2022/11/01 03:56:01;;;;;;;8.57;3.40;;;14.30;78.90;14.40;96534.00;;;;5031619;28;20292;-88
2022/11/01 03:58:40;;;;;;;4.73;3.27;;;14.30;78.90;14.40;96538.00;;;;5031825;28;20368;-87
2022/11/01 04:01:09;;;;;;;7.60;3.40;;;14.30;78.90;14.40;96531.00;;;;5020466;28;20204;-87
2022/11/01 04:03:37;;;;;;;4.87;3.00;;;14.30;79.00;14.40;96524.00;;;;5024948;28;20206;-88
2022/11/01 04:06:06;;;;;;;3.60;3.30;;;14.20;78.90;14.30;96525.00;;;;5029936;28;20284;-87
2022/11/01 04:08:35;;;;;;;5.33;3.30;;;14.20;78.90;14.30;96527.00;;;;5031245;28;20218;-88
2022/11/01 04:11:03;;;;;;;3.00;2.80;;;14.20;78.90;14.30;96535.00;;;;5023499;28;20276;-88
2022/11/01 04:13:30;;;;;;;3.23;3.03;;;14.20;78.90;14.30;96536.00;;;;5031947;28;20221;-87
2022/11/01 04:21:37;;;;;;;3.37;3.17;;;14.20;78.80;14.20;96533.00;;;;4991863;28;20202;-87
2022/11/01 04:24:05;;;;;;;3.10;2.90;;;14.20;78.60;14.20;96534.00;;;;5025896;28;20207;-88
2022/11/01 04:26:32;;;;;;;2.77;2.57;;;14.10;78.60;14.20;96536.00;;;;5023097;28;20288;-88
2022/11/01 04:28:59;;;;;;;3.07;2.87;;;14.10;78.70;14.20;96546.00;;;;5031082;28;20351;-88
2022/11/01 04:31:29;;;;;;;2.87;2.67;;;14.10;78.60;14.20;96551.00;;;;5031660;28;20679;-88
2022/11/01 04:33:57;;;;;;;3.83;2.87;;;14.10;78.50;14.10;96558.00;;;;5031219;28;20225;-87
2022/11/01 04:36:25;;;;;;;2.73;2.63;;;14.10;78.30;14.10;96561.00;;;;5030925;28;20279;-87
2022/11/01 04:38:56;;;;;;;2.93;2.73;;;14.10;78.20;14.00;96550.00;;;;5027905;28;20221;-88
2022/11/01 04:41:24;;;;;;;3.07;2.67;;;14.00;77.90;14.00;96546.00;;;;5023350;28;20285;-88
2022/11/01 04:43:55;;;;;;;3.07;2.90;;;14.00;77.80;14.00;96550.00;;;;5030677;28;20193;-87
2022/11/01 04:46:22;;;;;;;2.60;2.47;;;14.00;77.80;14.00;96552.00;;;;5031181;28;20224;-87
2022/11/01 04:48:50;;;;;;;2.57;2.47;;;14.00;77.70;13.90;96558.00;;;;5019147;28;20305;-88
2022/11/01 04:51:17;;;;;;;2.60;2.50;;;13.90;77.60;13.90;96561.00;;;;5026002;28;20224;-88
2022/11/01 04:53:44;;;;;;;2.57;2.47;;;13.90;78.20;13.90;96563.00;;;;5031455;28;20252;-88
2022/11/01 04:56:13;;;;;;;3.00;2.70;;;13.90;77.30;13.80;96562.00;;;;5031083;28;20240;-88
2022/11/01 04:58:41;;;;;;;2.83;2.60;;;13.80;77.20;13.80;96557.00;;;;5030695;28;20239;-88
2022/11/01 05:01:09;;;;;;;2.60;2.50;;;13.80;77.10;13.80;96555.00;;;;5030542;28;20280;-87
2022/11/01 05:03:36;;;;;;;2.73;2.63;;;13.80;77.00;13.70;96559.00;;;;5031313;28;20224;-88
2022/11/01 05:06:03;;;;;;;2.80;2.60;;;13.80;76.90;13.70;96556.00;;;;5031012;28;20241;-87
2022/11/01 05:08:30;;;;;;;2.50;2.40;;;13.70;76.90;13.70;96557.00;;;;5031157;28;20252;-88
2022/11/01 05:10:57;;;;;;;3.50;3.30;;;13.70;77.00;13.70;96567.00;;;;5025239;28;20234;-88
2022/11/01 05:13:26;;;;;;;5.97;4.20;;;13.60;76.80;13.60;96566.00;;;;5026419;28;20695;-87
2022/11/01 05:15:53;;;;;;;5.13;3.07;;;13.60;76.80;13.60;96564.00;;;;5027426;28;20281;-87
2022/11/01 05:18:20;;;;;;;3.53;3.33;;;13.60;76.80;13.50;96572.00;;;;5031351;28;20249;-88
2022/11/01 05:20:47;;;;;;;4.90;3.10;;;13.40;76.70;13.50;96575.00;;;;5030557;28;20206;-87
2022/11/01 05:23:14;;;;;;;3.13;2.93;;;13.50;76.90;13.50;96576.00;;;;5031186;28;20668;-86
2022/11/01 05:25:41;;;;;;;3.37;3.17;;;13.50;76.90;13.40;96588.00;;;;5030977;28;20930;-88
2022/11/01 05:28:13;;;;;;;3.00;2.80;;;13.50;77.00;13.40;96586.00;;;;5030769;28;20646;-88
2022/11/01 05:30:42;;;;;;;3.27;3.07;;;13.40;77.00;13.40;96583.00;;;;5030973;28;20710;-88
2022/11/01 05:33:11;;;;;;;3.23;3.03;;;13.40;77.10;13.40;96582.00;;;;5034202;28;20229;-88
2022/11/01 05:35:38;;;;;;;3.17;2.97;;;13.40;77.10;13.30;96602.00;;;;5030179;28;20204;-87
2022/11/01 05:38:06;;;;;;;3.27;3.07;;;13.30;77.10;13.30;96592.00;;;;5027929;28;20280;-88
2022/11/01 05:40:34;;;;;;;3.77;3.57;;;13.30;77.10;13.30;96593.00;;;;5034328;28;20627;-88
2022/11/01 05:43:01;;;;;;;3.60;3.40;;;13.30;77.20;13.30;96605.00;;;;5034305;28;20195;-88
2022/11/01 05:45:28;;;;;;;3.40;3.10;;;13.30;77.10;13.20;96605.00;;;;5032723;28;20580;-89
2022/11/01 05:48:01;;;;;;;3.60;3.40;;;13.20;77.10;13.20;96596.00;;;;5034225;28;20775;-88
2022/11/01 05:50:28;;;;;;;3.40;3.20;;;13.20;77.70;13.20;96598.00;;;;5023223;28;20240;-88
2022/11/01 05:52:55;;;;;;;4.10;3.80;;;13.30;77.00;13.20;96606.00;;;;5035202;28;20207;-87
2022/11/01 05:55:22;;;;;;;3.63;3.43;;;13.20;77.00;13.20;96617.00;;;;5030009;28;20263;-88
2022/11/01 05:57:49;;;;;;;3.43;3.23;;;13.20;77.00;13.20;96622.00;;;;5029085;28;20284;-87
2022/11/01 06:00:17;;;;;;;3.70;3.27;;;13.20;77.10;13.20;96618.00;;;;5033896;28;20284;-88
2022/11/01 06:02:44;;;;;;;3.90;3.37;;;13.10;77.20;13.20;96619.00;;;;5029212;28;20217;-87
2022/11/01 06:05:13;;;;;;;4.17;3.70;;;13.10;77.40;13.20;96624.00;;;;5033686;28;20233;-88
2022/11/01 06:07:40;;;;;;;3.90;3.60;;;13.10;77.40;13.20;96621.00;;;;5033806;28;20284;-88
2022/11/01 06:10:08;;;;;;;4.27;3.97;;;13.10;77.20;13.20;96627.00;;;;5034207;28;20296;-87
2022/11/01 06:12:35;;;;;;;3.77;3.57;;;13.10;77.30;13.20;96624.00;;;;5033297;28;20208;-88
2022/11/01 06:15:05;;;;;;;3.80;3.60;;;13.10;77.40;13.20;96631.00;;;;5032923;28;20217;-87
2022/11/01 06:17:32;;;;;;;3.67;3.47;;;13.10;77.40;13.20;96636.00;;;;5032224;28;20730;-87
2022/11/01 06:20:00;;;;;;;3.27;3.07;;;13.10;77.40;13.10;96636.00;;;;5031461;28;20221;-88
2022/11/01 06:22:28;;;;;;;3.80;3.60;;;13.00;77.30;13.20;96630.00;;;;5029209;28;20295;-86
2022/11/01 06:24:55;;;;;;;3.73;3.43;;;13.10;77.50;13.20;96640.00;;;;5033026;28;20276;-88
2022/11/01 06:27:22;;;;;;;4.00;3.70;;;13.10;77.50;13.20;96644.00;;;;5034074;28;20284;-88
2022/11/01 06:29:49;;;;;;;3.53;3.33;;;13.10;77.70;13.20;96648.00;;;;5022790;28;20304;-88
2022/11/01 06:32:16;;;;;;;3.63;3.43;;;13.10;77.80;13.20;96669.00;;;;5030725;28;20236;-88
2022/11/01 06:34:43;;;;;;;3.20;3.00;;;13.10;78.50;13.20;96683.00;;;;5033316;28;20760;-88
2022/11/01 06:37:11;;;;;;;3.50;3.27;;;13.10;77.80;13.20;96677.00;;;;5033142;28;20675;-87
2022/11/01 06:39:39;;;;;;;3.70;3.50;;;13.10;77.80;13.20;96681.00;;;;5033162;28;20252;-88
2022/11/01 06:42:06;;;;;;;3.23;3.03;;;13.10;77.80;13.20;96684.00;;;;5032456;28;20296;-87
2022/11/01 06:44:33;;;;;;;3.53;3.33;;;13.10;77.80;13.30;96691.00;;;;5033308;28;20234;-88
2022/11/01 06:47:00;;;;;;;3.30;3.10;;;13.10;77.90;13.30;96701.00;;;;5028300;28;20240;-87
2022/11/01 06:49:28;;;;;;;3.53;3.23;;;13.20;78.00;13.30;96716.00;;;;5032695;28;20249;-88
2022/11/01 06:51:55;;;;;;;3.73;3.53;;;13.20;77.90;13.30;96712.00;;;;5030259;28;20197;-88
2022/11/01 06:54:22;;;;;;;3.40;3.20;;;13.10;77.90;13.30;96721.00;;;;5033028;28;20331;-88
2022/11/01 06:56:50;;;;;;;3.57;3.27;;;13.20;77.90;13.30;96720.00;;;;5028018;28;20288;-87
2022/11/01 06:59:17;;;;;;;2.77;2.63;;;13.20;78.10;13.30;96726.00;;;;5033200;28;20646;-88
2022/11/01 07:01:44;;;;;;;3.30;3.10;;;13.20;78.20;13.40;96729.00;;;;5029448;28;20882;-88
2022/11/01 07:04:12;;;;;;;3.10;2.90;;;13.20;78.10;13.40;96739.00;;;;5032631;28;20255;-88
2022/11/01 07:06:39;;;;;;;3.50;3.20;;;13.20;78.10;13.40;96733.00;;;;5033037;28;20221;-88
2022/11/01 07:09:06;;;;;;;3.00;2.80;;;13.30;78.10;13.40;96734.00;;;;5029894;28;20759;-88
2022/11/01 07:11:33;;;;;;;3.57;3.37;;;13.30;78.10;13.40;96743.00;;;;5032539;28;20197;-88
2022/11/01 07:14:02;;;;;;;3.97;3.10;;;13.30;78.20;13.50;96736.00;;;;5023382;28;20234;-88
2022/11/01 07:16:29;;;;;;;3.33;3.07;;;13.30;78.30;13.60;96740.00;;;;5031848;28;20665;-89
2022/11/01 07:18:57;;;;;;;2.90;2.70;;;13.30;78.40;13.60;96757.00;;;;5024309;28;20690;-88
2022/11/01 07:21:24;;;;;;;3.17;2.90;;;13.40;78.60;13.70;96751.00;;;;5028926;28;20729;-88
2022/11/01 07:23:52;;;;;;;2.93;2.73;;;13.40;78.80;13.80;96763.00;;;;5031565;28;20229;-88
2022/11/01 07:26:20;;;;;;;4.30;4.00;;;13.40;79.00;13.90;96757.00;;;;5032607;28;20712;-88
2022/11/01 07:28:47;;;;;;;4.60;4.20;;;13.50;79.20;13.90;96764.00;;;;5032543;28;20646;-88
2022/11/01 07:31:15;;;;;;;3.93;3.63;;;13.60;79.40;14.00;96772.00;;;;5018366;28;20263;-87
2022/11/01 07:33:42;;;;;;;3.30;3.10;;;13.60;80.30;14.10;96774.00;;;;5031212;28;20292;-87
2022/11/01 07:36:10;;;;;;;3.03;2.73;;;13.60;79.50;14.10;96787.00;;;;5027068;28;20193;-88
2022/11/01 07:38:37;;;;;;;3.03;2.83;;;13.70;79.60;14.20;96784.00;;;;5032062;28;20216;-89
2022/11/01 07:41:05;;;;;;;3.33;3.13;;;13.70;79.60;14.30;96790.00;;;;5026398;28;20565;-88
2022/11/01 07:43:34;;;;;;;3.70;3.40;;;13.90;79.60;14.30;96803.00;;;;5030129;28;20309;-86
2022/11/01 07:46:04;;;;;;;3.63;3.33;;;13.90;79.60;14.40;96792.00;;;;5032562;28;20251;-89
2022/11/01 07:48:35;;;;;;;3.07;2.87;;;14.00;79.60;14.50;96791.00;;;;5025969;28;20229;-89
2022/11/01 07:51:04;;;;;;;3.40;3.13;;;14.00;79.60;14.50;96780.00;;;;5031777;28;20190;-89
2022/11/01 07:53:32;;;;;;;3.37;3.17;;;14.10;79.50;14.60;96789.00;;;;5030312;28;20680;-89
2022/11/01 07:56:00;;;;;;;3.40;3.20;;;14.10;79.50;14.60;96801.00;;;;5029167;28;20307;-89
2022/11/01 07:58:28;;;;;;;3.13;2.93;;;14.20;79.50;14.70;96797.00;;;;5028071;28;20233;-88
2022/11/01 08:00:55;;;;;;;3.40;3.20;;;14.30;79.60;14.70;96794.00;;;;5030396;28;20189;-88
2022/11/01 08:03:23;;;;;;;3.03;2.80;;;14.30;79.70;14.80;96790.00;;;;5030503;28;20204;-87
2022/11/01 08:05:51;;;;;;;3.70;3.40;;;14.40;79.80;14.90;96797.00;;;;5025833;28;20194;-87
2022/11/01 08:08:19;;;;;;;4.23;3.83;;;14.40;79.80;14.90;96799.00;;;;5011003;28;20217;-87
2022/11/01 08:10:46;;;;;;;5.00;4.50;;;14.50;79.90;15.00;96803.00;;;;5017392;28;20221;-88
2022/11/01 08:13:18;;;;;;;7.63;6.03;;;14.60;80.00;15.10;96803.00;;;;5030954;28;20284;-88
2022/11/01 08:15:46;;;;;;;6.57;5.60;;;14.60;80.00;15.10;96805.00;;;;5031491;28;20300;-89
2022/11/01 08:18:13;;;;;;;7.87;5.97;;;14.70;80.10;15.20;96807.00;;;;5028144;28;20300;-88
2022/11/01 08:20:40;;;;;;;6.00;5.13;;;14.80;81.00;15.30;96801.00;;;;5031615;28;20651;-90
2022/11/01 08:23:10;;;;;;;6.30;5.57;;;14.80;80.40;15.40;96803.00;;;;5031035;28;20209;-88
2022/11/01 08:25:37;;;;;;;5.13;4.73;;;14.90;81.30;15.50;96799.00;;;;5031354;28;20287;-87
2022/11/01 08:28:07;;;;;;;3.93;3.53;;;15.00;80.70;15.70;96798.00;;;;5024890;28;20293;-87
2022/11/01 08:30:36;;;;;;;4.30;3.73;;;15.10;80.90;15.80;96800.00;;;;5035511;28;20624;-87
2022/11/01 08:33:05;;;;;;;4.63;3.70;;;15.20;81.00;15.90;96804.00;;;;5030975;28;20248;-87
2022/11/01 08:35:33;;;;;;;3.93;3.63;;;15.30;81.10;16.00;96799.00;;;;5029014;28;20256;-88
2022/11/01 08:38:02;;;;;;;4.70;4.30;;;15.40;81.10;16.10;96805.00;;;;5025666;28;20229;-88
2022/11/01 08:40:32;;;;;;;4.60;4.20;;;15.50;81.10;16.20;96808.00;;;;5031716;28;20271;-88
2022/11/01 08:43:01;;;;;;;4.03;3.73;;;15.60;81.20;16.30;96810.00;;;;5030712;28;20733;-88
2022/11/01 08:45:28;;;;;;;3.67;3.37;;;15.70;81.30;16.40;96807.00;;;;5027560;28;20280;-88
2022/11/01 08:48:00;;;;;;;4.17;3.70;;;15.80;81.30;16.50;96808.00;;;;5026033;28;20205;-87
2022/11/01 08:50:27;;;;;;;3.67;3.37;;;15.90;81.40;16.60;96812.00;;;;5029701;28;20193;-87
2022/11/01 08:52:55;;;;;;;5.00;3.53;;;16.00;81.40;16.70;96807.00;;;;5031086;28;20281;-88
2022/11/01 08:55:22;;;;;;;4.50;3.43;;;16.10;81.30;16.80;96808.00;;;;5030183;28;20319;-88
2022/11/01 08:57:51;;;;;;;4.23;3.93;;;16.20;81.20;16.90;96815.00;;;;5023344;28;20233;-88
2022/11/01 09:00:20;;;;;;;4.40;3.57;;;16.30;81.10;17.00;96812.00;;;;5028013;28;20189;-87
2022/11/01 09:02:47;;;;;;;3.57;3.37;;;16.40;81.10;17.10;96812.00;;;;5031834;28;20286;-87
2022/11/01 09:05:14;;;;;;;3.17;2.90;;;16.50;81.10;17.20;96810.00;;;;5032207;28;20310;-89
2022/11/01 09:07:41;;;;;;;3.33;2.87;;;16.60;81.00;17.30;96813.00;;;;5020899;28;20194;-89
2022/11/01 09:10:10;;;;;;;4.60;3.40;;;16.70;80.90;17.40;96815.00;;;;5034377;28;20249;-88
2022/11/01 09:12:38;;;;;;;3.20;3.00;;;16.80;80.80;17.50;96810.00;;;;5035155;28;20204;-88
2022/11/01 09:15:08;;;;;;;3.90;2.93;;;16.80;80.60;17.60;96811.00;;;;5034872;28;20315;-89
2022/11/01 09:17:36;;;;;;;3.40;3.10;;;16.90;80.50;17.70;96812.00;;;;5035301;28;20604;-88
2022/11/01 09:20:04;;;;;;;3.00;2.80;;;17.00;80.50;17.80;96812.00;;;;5035473;28;20275;-88
2022/11/01 09:22:31;;;;;;;3.73;3.37;;;17.20;80.60;17.90;96814.00;;;;5034916;28;20200;-88
2022/11/01 09:24:58;;;;;;;3.27;2.97;;;17.20;80.60;18.00;96827.00;;;;5023926;28;20300;-88
2022/11/01 09:27:25;;;;;;;3.90;3.43;;;17.30;80.60;18.10;96826.00;;;;5023817;28;20296;-88
2022/11/01 09:29:53;;;;;;;3.30;3.00;;;17.40;80.50;18.10;96828.00;;;;5030259;28;20304;-88
2022/11/01 09:32:21;;;;;;;3.43;2.57;;;17.50;80.40;18.20;96839.00;;;;5034650;28;20678;-88
2022/11/01 09:34:48;;;;;;;5.10;3.07;;;17.60;80.30;18.30;96833.00;;;;5016114;28;20233;-88
2022/11/01 09:37:16;;;;;;;3.00;2.63;;;17.70;80.20;18.40;96826.00;;;;5015078;28;20198;-88
2022/11/01 09:39:43;;;;;;;3.10;2.80;;;17.80;80.20;18.50;96840.00;;;;5029166;28;20313;-90
2022/11/01 09:42:20;;;;;;;4.10;2.40;;;17.90;80.30;18.60;96837.00;;;;5021321;28;20280;-89
2022/11/01 09:44:52;;;;;;;6.33;3.00;;;18.00;80.30;18.70;96834.00;;;;5034325;28;20208;-89
2022/11/01 09:47:26;;;;;;;3.00;2.57;;;18.10;80.00;18.80;96842.00;;;;5030889;28;20273;-89
2022/11/01 09:50:16;;;;;;;3.97;3.27;;;18.10;79.80;18.90;96836.00;;;;5040032;28;20215;-88
2022/11/01 09:52:44;;;;;;;2.50;2.30;;;18.20;79.90;18.90;96832.00;;;;5042804;28;20253;-89
2022/11/01 09:55:15;;;;;;;3.03;2.60;;;18.30;80.00;19.10;96830.00;;;;5024105;28;20304;-89
2022/11/01 09:57:51;;;;;;;4.07;3.00;;;18.40;80.10;19.10;96824.00;;;;5022733;28;20197;-89
2022/11/01 10:00:20;;;;;;;4.13;2.90;;;18.50;79.80;19.20;96827.00;;;;5034520;28;20594;-89
2022/11/01 10:03:32;;;;;;;6.23;2.90;;;18.60;79.70;19.30;96837.00;;;;5028170;28;20218;-89
2022/11/01 10:06:11;;;;;;;4.80;2.73;;;18.70;78.80;19.40;96828.00;;;;5016428;28;20190;-88
2022/11/01 10:08:56;;;;;;;4.00;2.87;;;18.70;79.10;19.40;96832.00;;;;5035764;28;20251;-88
2022/11/01 10:11:52;;;;;;;3.97;2.93;;;18.80;79.80;19.50;96820.00;;;;5033204;28;20273;-88
2022/11/01 10:14:39;;;;;;;4.53;2.80;;;18.90;78.30;19.60;96820.00;;;;5029429;28;20201;-88
2022/11/01 10:17:14;;;;;;;3.37;2.90;;;19.00;78.40;19.70;96822.00;;;;5023656;28;20225;-88
2022/11/01 10:19:47;;;;;;;3.20;2.87;;;19.00;78.40;19.70;96819.00;;;;5032882;28;20602;-89
2022/11/01 10:22:18;;;;;;;2.93;2.73;;;19.10;78.50;19.80;96816.00;;;;5024936;28;20199;-89
2022/11/01 10:25:05;;;;;;;2.77;2.57;;;19.10;78.50;19.80;96821.00;;;;5029077;28;20336;-89
2022/11/01 10:27:52;;;;;;;3.50;2.90;;;19.20;78.50;19.90;96832.00;;;;5027874;28;20730;-89
2022/11/01 10:30:20;;;;;;;2.80;2.60;;;19.30;79.10;20.00;96827.00;;;;5027967;28;20232;-89
2022/11/01 10:32:54;;;;;;;3.53;3.23;;;19.40;78.70;20.10;96835.00;;;;5032912;28;20201;-89
2022/11/01 10:35:28;;;;;;;3.67;2.67;;;19.40;78.80;20.20;96834.00;;;;5033574;28;20304;-89
2022/11/01 10:38:02;;;;;;;3.53;2.73;;;19.50;78.50;20.30;96841.00;;;;5030391;28;20239;-89
2022/11/01 10:40:36;;;;;;;4.37;2.90;;;19.60;78.30;20.30;96836.00;;;;5031095;28;20573;-88
2022/11/01 10:43:13;;;;;;;3.43;2.57;;;19.70;78.20;20.40;96836.00;;;;5029891;28;20288;-87
2022/11/01 10:45:42;;;;;;;3.20;2.90;;;19.70;78.00;20.50;96849.00;;;;5033427;28;20241;-86
2022/11/01 10:48:21;;;;;;;3.10;2.83;;;19.80;77.90;20.60;96847.00;;;;5026508;28;20324;-85
2022/11/01 10:50:52;;;;;;;3.50;3.20;;;19.90;77.60;20.70;96844.00;;;;5022847;28;20194;-88
2022/11/01 10:53:21;;;;;;;3.03;2.77;;;20.00;77.30;20.70;96846.00;;;;5029066;28;20867;-88
2022/11/01 10:55:55;;;;;;;3.87;2.67;;;20.10;77.10;20.80;96848.00;;;;5031670;28;20729;-87
2022/11/01 10:58:34;;;;;;;5.10;3.00;;;20.10;76.50;20.80;96847.00;;;;5032485;28;20225;-87
2022/11/01 11:01:03;;;;;;;3.97;3.00;;;20.20;76.50;20.90;96845.00;;;;5033221;28;20636;-87
2022/11/01 11:03:31;;;;;;;3.97;2.67;;;20.30;76.70;20.90;96843.00;;;;5033096;28;20280;-87
2022/11/01 11:06:09;;;;;;;3.87;2.50;;;20.30;76.40;21.00;96846.00;;;;5029947;28;20292;-88
2022/11/01 11:08:41;;;;;;;4.60;3.03;;;20.40;76.10;21.00;96846.00;;;;5022026;28;20221;-87
2022/11/01 11:11:14;;;;;;;4.30;2.77;;;20.40;76.00;21.10;96840.00;;;;5026407;28;20636;-88
2022/11/01 11:13:46;;;;;;;4.10;2.47;;;20.50;75.80;21.10;96837.00;;;;5015600;28;20200;-88
2022/11/01 11:16:26;;;;;;;3.23;2.27;;;20.50;75.60;21.20;96838.00;;;;5035160;28;20245;-87
2022/11/01 11:19:14;;;;;;;3.63;3.13;;;20.60;75.60;21.30;96839.00;;;;5037274;28;20305;-87